sensor_id;sensor_type;location;lat;lon;timestamp;pressure;altitude;pressure_sealevel;temperature;humidity
66681;BME280;73718;51.366;12.350;2023-11-19T00:01:27;100159.84;;;5.04;100.00
66681;BME280;73718;51.366;12.350;2023-11-19T00:03:52;100138.22;;;5.03;100.00
66681;BME280;73718;51.366;12.350;2023-11-19T00:06:18;100149.50;;;5.04;100.00
66681;BME280;73718;51.366;12.350;2023-11-19T00:08:44;100146.91;;;5.05;100.00
66681;BME280;73718;51.366;12.350;2023-11-19T00:11:09;100146.91;;;5.07;100.00
66681;BME280;73718;51.366;12.350;2023-11-19T00:13:35;100152.94;;;5.06;100.00
66681;BME280;73718;51.366;12.350;2023-11-19T00:16:00;100134.81;;;5.04;100.00
66681;BME280;73718;51.366;12.350;2023-11-19T00:18:26;100126.13;;;5.02;100.00
66681;BME280;73718;51.366;12.350;2023-11-19T00:20:51;100121.81;;;5.01;100.00
66681;BME280;73718;51.366;12.350;2023-11-19T00:23:16;100113.13;;;4.96;100.00
66681;BME280;73718;51.366;12.350;2023-11-19T00:25:42;100107.03;;;4.94;100.00
66681;BME280;73718;51.366;12.350;2023-11-19T00:28:07;100095.78;;;4.89;100.00
66681;BME280;73718;51.366;12.350;2023-11-19T00:30:33;100106.94;;;4.88;100.00
66681;BME280;73718;51.366;12.350;2023-11-19T00:32:58;100100.09;;;4.88;100.00
66681;BME280;73718;51.366;12.350;2023-11-19T00:35:23;100084.44;;;4.82;100.00
66681;BME280;73718;51.366;12.350;2023-11-19T00:37:49;100072.38;;;4.83;100.00
66681;BME280;73718;51.366;12.350;2023-11-19T00:40:15;100073.19;;;4.80;100.00
66681;BME280;73718;51.366;12.350;2023-11-19T00:42:46;100065.44;;;4.80;100.00
66681;BME280;73718;51.366;12.350;2023-11-19T00:45:12;100045.56;;;4.79;100.00
66681;BME280;73718;51.366;12.350;2023-11-19T00:47:38;100044.72;;;4.79;100.00
66681;BME280;73718;51.366;12.350;2023-11-19T00:50:03;100039.59;;;4.83;100.00
66681;BME280;73718;51.366;12.350;2023-11-19T00:52:29;100023.13;;;4.78;100.00
66681;BME280;73718;51.366;12.350;2023-11-19T00:54:55;100016.22;;;4.79;100.00
66681;BME280;73718;51.366;12.350;2023-11-19T00:57:20;100008.47;;;4.77;100.00
66681;BME280;73718;51.366;12.350;2023-11-19T00:59:45;100011.91;;;4.79;100.00
66681;BME280;73718;51.366;12.350;2023-11-19T01:02:12;100004.16;;;4.79;100.00
66681;BME280;73718;51.366;12.350;2023-11-19T01:04:39;99999.88;;;4.81;100.00
66681;BME280;73718;51.366;12.350;2023-11-19T01:07:05;99999.88;;;4.83;100.00
66681;BME280;73718;51.366;12.350;2023-11-19T01:09:37;100001.63;;;4.82;100.00
66681;BME280;73718;51.366;12.350;2023-11-19T01:12:03;100001.63;;;4.82;100.00
66681;BME280;73718;51.366;12.350;2023-11-19T01:14:29;99985.22;;;4.83;100.00
66681;BME280;73718;51.366;12.350;2023-11-19T01:16:54;99971.41;;;4.84;100.00
66681;BME280;73718;51.366;12.350;2023-11-19T01:19:23;99965.41;;;4.87;100.00
66681;BME280;73718;51.366;12.350;2023-11-19T01:21:49;99961.09;;;4.87;100.00
66681;BME280;73718;51.366;12.350;2023-11-19T01:24:15;99953.34;;;4.86;100.00
66681;BME280;73718;51.366;12.350;2023-11-19T01:26:41;99947.28;;;4.85;100.00
66681;BME280;73718;51.366;12.350;2023-11-19T01:29:14;99939.47;;;4.84;100.00
66681;BME280;73718;51.366;12.350;2023-11-19T01:31:40;99921.41;;;4.85;100.00
66681;BME280;73718;51.366;12.350;2023-11-19T01:34:05;99923.16;;;4.89;100.00
66681;BME280;73718;51.366;12.350;2023-11-19T01:36:30;99914.50;;;4.86;100.00
66681;BME280;73718;51.366;12.350;2023-11-19T01:38:56;99916.19;;;4.84;100.00
66681;BME280;73718;51.366;12.350;2023-11-19T01:41:24;99898.06;;;4.84;100.00
66681;BME280;73718;51.366;12.350;2023-11-19T01:43:50;99892.06;;;4.86;100.00
66681;BME280;73718;51.366;12.350;2023-11-19T01:46:15;99882.56;;;4.87;100.00
66681;BME280;73718;51.366;12.350;2023-11-19T01:48:43;99880.84;;;4.87;100.00
66681;BME280;73718;51.366;12.350;2023-11-19T01:51:10;99892.06;;;4.86;100.00
66681;BME280;73718;51.366;12.350;2023-11-19T01:53:38;99892.88;;;4.84;100.00
66681;BME280;73718;51.366;12.350;2023-11-19T01:56:06;99894.66;;;4.86;100.00
66681;BME280;73718;51.366;12.350;2023-11-19T01:58:37;99888.66;;;4.91;100.00
66681;BME280;73718;51.366;12.350;2023-11-19T02:01:05;99888.66;;;4.89;100.00
66681;BME280;73718;51.366;12.350;2023-11-19T02:03:32;99867.94;;;4.89;100.00
66681;BME280;73718;51.366;12.350;2023-11-19T02:05:59;99864.47;;;4.90;100.00
66681;BME280;73718;51.366;12.350;2023-11-19T02:08:25;99848.94;;;4.90;100.00
66681;BME280;73718;51.366;12.350;2023-11-19T02:10:51;99841.19;;;4.92;100.00
66681;BME280;73718;51.366;12.350;2023-11-19T02:13:18;99836.88;;;4.89;100.00
66681;BME280;73718;51.366;12.350;2023-11-19T02:15:43;99830.81;;;4.88;100.00
66681;BME280;73718;51.366;12.350;2023-11-19T02:18:23;99822.19;;;4.89;100.00
66681;BME280;73718;51.366;12.350;2023-11-19T02:20:50;99835.13;;;4.89;100.00
66681;BME280;73718;51.366;12.350;2023-11-19T02:23:16;99827.38;;;4.91;100.00
66681;BME280;73718;51.366;12.350;2023-11-19T02:25:43;99817.06;;;4.93;100.00
66681;BME280;73718;51.366;12.350;2023-11-19T02:28:09;99800.66;;;4.94;100.00
66681;BME280;73718;51.366;12.350;2023-11-19T02:30:37;99800.63;;;4.92;100.00
66681;BME280;73718;51.366;12.350;2023-11-19T02:33:03;99774.72;;;4.91;100.00
66681;BME280;73718;51.366;12.350;2023-11-19T02:35:31;99773.88;;;4.92;100.00
66681;BME280;73718;51.366;12.350;2023-11-19T02:37:58;99767.81;;;4.91;100.00
66681;BME280;73718;51.366;12.350;2023-11-19T02:40:29;99766.97;;;4.91;100.00
66681;BME280;73718;51.366;12.350;2023-11-19T02:42:54;99768.69;;;4.92;100.00
66681;BME280;73718;51.366;12.350;2023-11-19T02:45:22;99753.19;;;4.95;100.00
66681;BME280;73718;51.366;12.350;2023-11-19T02:47:47;99738.53;;;4.97;100.00
66681;BME280;73718;51.366;12.350;2023-11-19T02:50:13;99729.03;;;4.96;100.00
66681;BME280;73718;51.366;12.350;2023-11-19T02:52:42;99717.84;;;4.97;100.00
66681;BME280;73718;51.366;12.350;2023-11-19T02:55:08;99725.59;;;5.00;100.00
66681;BME280;73718;51.366;12.350;2023-11-19T02:57:43;99729.94;;;5.02;100.00
66681;BME280;73718;51.366;12.350;2023-11-19T03:00:21;99721.34;;;5.09;100.00
66681;BME280;73718;51.366;12.350;2023-11-19T03:02:56;99707.53;;;5.09;100.00
66681;BME280;73718;51.366;12.350;2023-11-19T03:05:30;99699.78;;;5.09;100.00
66681;BME280;73718;51.366;12.350;2023-11-19T03:07:56;99691.16;;;5.13;100.00
66681;BME280;73718;51.366;12.350;2023-11-19T03:10:22;99694.59;;;5.10;100.00
66681;BME280;73718;51.366;12.350;2023-11-19T03:12:47;99692.88;;;5.12;100.00
66681;BME280;73718;51.366;12.350;2023-11-19T03:15:12;99683.41;;;5.13;100.00
66681;BME280;73718;51.366;12.350;2023-11-19T03:17:39;99679.94;;;5.14;100.00
66681;BME280;73718;51.366;12.350;2023-11-19T03:20:06;99679.97;;;5.16;100.00
66681;BME280;73718;51.366;12.350;2023-11-19T03:22:32;99676.50;;;5.18;100.00
66681;BME280;73718;51.366;12.350;2023-11-19T03:24:59;99669.63;;;5.25;100.00
66681;BME280;73718;51.366;12.350;2023-11-19T03:27:25;99662.75;;;5.27;100.00
66681;BME280;73718;51.366;12.350;2023-11-19T03:29:50;99664.47;;;5.29;100.00
66681;BME280;73718;51.366;12.350;2023-11-19T03:32:15;99666.22;;;5.33;100.00
66681;BME280;73718;51.366;12.350;2023-11-19T03:34:41;99661.94;;;5.38;100.00
66681;BME280;73718;51.366;12.350;2023-11-19T03:37:06;99661.09;;;5.43;100.00
66681;BME280;73718;51.366;12.350;2023-11-19T03:39:31;99664.56;;;5.46;100.00
66681;BME280;73718;51.366;12.350;2023-11-19T03:41:58;99670.63;;;5.50;100.00
66681;BME280;73718;51.366;12.350;2023-11-19T03:44:23;99661.13;;;5.52;100.00
66681;BME280;73718;51.366;12.350;2023-11-19T03:46:52;99656.81;;;5.54;100.00
66681;BME280;73718;51.366;12.350;2023-11-19T03:49:17;99649.88;;;5.53;100.00
66681;BME280;73718;51.366;12.350;2023-11-19T03:51:43;99637.81;;;5.53;100.00
66681;BME280;73718;51.366;12.350;2023-11-19T03:54:08;99638.69;;;5.54;100.00
66681;BME280;73718;51.366;12.350;2023-11-19T03:56:34;99630.91;;;5.55;100.00
66681;BME280;73718;51.366;12.350;2023-11-19T03:58:59;99642.13;;;5.54;100.00
66681;BME280;73718;51.366;12.350;2023-11-19T04:01:25;99637.81;;;5.56;100.00
66681;BME280;73718;51.366;12.350;2023-11-19T04:03:50;99628.31;;;5.57;100.00
66681;BME280;73718;51.366;12.350;2023-11-19T04:06:15;99617.94;;;5.60;100.00
66681;BME280;73718;51.366;12.350;2023-11-19T04:08:41;99621.44;;;5.62;100.00
66681;BME280;73718;51.366;12.350;2023-11-19T04:11:06;99628.34;;;5.61;100.00
66681;BME280;73718;51.366;12.350;2023-11-19T04:13:34;99625.75;;;5.66;100.00
66681;BME280;73718;51.366;12.350;2023-11-19T04:15:59;99620.56;;;5.66;100.00
66681;BME280;73718;51.366;12.350;2023-11-19T04:18:25;99616.25;;;5.71;100.00
66681;BME280;73718;51.366;12.350;2023-11-19T04:20:50;99617.13;;;5.73;100.00
66681;BME280;73718;51.366;12.350;2023-11-19T04:23:16;99603.28;;;5.76;100.00
66681;BME280;73718;51.366;12.350;2023-11-19T04:25:41;99598.97;;;5.79;100.00
66681;BME280;73718;51.366;12.350;2023-11-19T04:28:07;99604.19;;;5.81;100.00
66681;BME280;73718;51.366;12.350;2023-11-19T04:30:33;99606.78;;;5.85;100.00
66681;BME280;73718;51.366;12.350;2023-11-19T04:32:58;99599.00;;;5.85;100.00
66681;BME280;73718;51.366;12.350;2023-11-19T04:35:24;99592.97;;;5.88;100.00
66681;BME280;73718;51.366;12.350;2023-11-19T04:37:51;99589.50;;;5.91;100.00
66681;BME280;73718;51.366;12.350;2023-11-19T04:40:16;99584.31;;;5.91;100.00
66681;BME280;73718;51.366;12.350;2023-11-19T04:42:43;99569.66;;;5.93;100.00
66681;BME280;73718;51.366;12.350;2023-11-19T04:45:09;99579.16;;;5.95;100.00
66681;BME280;73718;51.366;12.350;2023-11-19T04:47:36;99576.56;;;6.01;100.00
66681;BME280;73718;51.366;12.350;2023-11-19T04:50:02;99569.66;;;6.00;100.00
66681;BME280;73718;51.366;12.350;2023-11-19T04:52:27;99554.97;;;6.01;100.00
66681;BME280;73718;51.366;12.350;2023-11-19T04:54:52;99542.84;;;6.01;100.00
66681;BME280;73718;51.366;12.350;2023-11-19T04:57:18;99552.38;;;6.04;100.00
66681;BME280;73718;51.366;12.350;2023-11-19T04:59:43;99552.38;;;6.04;100.00
66681;BME280;73718;51.366;12.350;2023-11-19T05:02:09;99549.78;;;6.07;100.00
66681;BME280;73718;51.366;12.350;2023-11-19T05:04:35;99541.13;;;6.09;100.00
66681;BME280;73718;51.366;12.350;2023-11-19T05:07:00;99532.50;;;6.10;100.00
66681;BME280;73718;51.366;12.350;2023-11-19T05:09:26;99533.34;;;6.13;100.00
66681;BME280;73718;51.366;12.350;2023-11-19T05:11:52;99528.16;;;6.11;100.00
66681;BME280;73718;51.366;12.350;2023-11-19T05:14:17;99522.13;;;6.10;100.00
66681;BME280;73718;51.366;12.350;2023-11-19T05:16:45;99529.91;;;6.15;100.00
66681;BME280;73718;51.366;12.350;2023-11-19T05:19:11;99536.81;;;6.16;100.00
66681;BME280;73718;51.366;12.350;2023-11-19T05:21:36;99527.31;;;6.18;100.00
66681;BME280;73718;51.366;12.350;2023-11-19T05:24:02;99508.25;;;6.21;100.00
66681;BME280;73718;51.366;12.350;2023-11-19T05:26:29;99509.13;;;6.21;100.00
66681;BME280;73718;51.366;12.350;2023-11-19T05:28:55;99517.78;;;6.26;100.00
66681;BME280;73718;51.366;12.350;2023-11-19T05:31:20;99529.00;;;6.28;100.00
66681;BME280;73718;51.366;12.350;2023-11-19T05:33:46;99531.59;;;6.33;100.00
66681;BME280;73718;51.366;12.350;2023-11-19T05:36:12;99528.13;;;6.35;100.00
66681;BME280;73718;51.366;12.350;2023-11-19T05:38:38;99532.44;;;6.40;100.00
66681;BME280;73718;51.366;12.350;2023-11-19T05:41:04;99535.91;;;6.43;100.00
66681;BME280;73718;51.366;12.350;2023-11-19T05:43:30;99546.25;;;6.45;100.00
66681;BME280;73718;51.366;12.350;2023-11-19T05:45:55;99544.53;;;6.48;100.00
66681;BME280;73718;51.366;12.350;2023-11-19T05:48:21;99538.47;;;6.51;100.00
66681;BME280;73718;51.366;12.350;2023-11-19T05:50:46;99538.47;;;6.51;100.00
66681;BME280;73718;51.366;12.350;2023-11-19T05:53:14;99525.50;;;6.51;100.00
66681;BME280;73718;51.366;12.350;2023-11-19T05:55:40;99495.22;;;6.51;100.00
66681;BME280;73718;51.366;12.350;2023-11-19T05:58:15;99485.72;;;6.50;100.00
66681;BME280;73718;51.366;12.350;2023-11-19T06:00:41;99487.44;;;6.51;100.00
66681;BME280;73718;51.366;12.350;2023-11-19T06:03:09;99494.34;;;6.54;100.00
66681;BME280;73718;51.366;12.350;2023-11-19T06:05:35;99504.72;;;6.55;100.00
66681;BME280;73718;51.366;12.350;2023-11-19T06:08:00;99508.19;;;6.57;100.00
66681;BME280;73718;51.366;12.350;2023-11-19T06:10:26;99509.88;;;6.63;100.00
66681;BME280;73718;51.366;12.350;2023-11-19T06:12:58;99504.66;;;6.68;100.00
66681;BME280;73718;51.366;12.350;2023-11-19T06:15:25;99510.75;;;6.70;100.00
66681;BME280;73718;51.366;12.350;2023-11-19T06:17:51;99503.81;;;6.70;100.00
66681;BME280;73718;51.366;12.350;2023-11-19T06:20:16;99505.53;;;6.74;100.00
66681;BME280;73718;51.366;12.350;2023-11-19T06:22:42;99508.13;;;6.76;100.00
66681;BME280;73718;51.366;12.350;2023-11-19T06:25:09;99517.63;;;6.80;100.00
66681;BME280;73718;51.366;12.350;2023-11-19T06:27:34;99515.88;;;6.82;100.00
66681;BME280;73718;51.366;12.350;2023-11-19T06:30:00;99501.16;;;6.87;100.00
66681;BME280;73718;51.366;12.350;2023-11-19T06:32:26;99499.41;;;6.91;100.00
66681;BME280;73718;51.366;12.350;2023-11-19T06:34:51;99511.50;;;6.93;100.00
66681;BME280;73718;51.366;12.350;2023-11-19T06:37:17;99512.38;;;6.94;100.00
66681;BME280;73718;51.366;12.350;2023-11-19T06:39:42;99496.78;;;6.94;100.00
66681;BME280;73718;51.366;12.350;2023-11-19T06:42:08;99502.00;;;6.92;100.00
66681;BME280;73718;51.366;12.350;2023-11-19T06:44:33;99489.03;;;6.91;100.00
66681;BME280;73718;51.366;12.350;2023-11-19T06:46:59;99491.63;;;6.88;100.00
66681;BME280;73718;51.366;12.350;2023-11-19T06:49:24;99485.59;;;6.81;100.00
66681;BME280;73718;51.366;12.350;2023-11-19T06:51:50;99493.41;;;6.76;100.00
66681;BME280;73718;51.366;12.350;2023-11-19T06:54:15;99490.81;;;6.73;100.00
66681;BME280;73718;51.366;12.350;2023-11-19T06:56:41;99502.06;;;6.71;100.00
66681;BME280;73718;51.366;12.350;2023-11-19T06:59:07;99494.28;;;6.68;100.00
66681;BME280;73718;51.366;12.350;2023-11-19T07:01:36;99517.66;;;6.68;100.00
66681;BME280;73718;51.366;12.350;2023-11-19T07:04:03;99517.66;;;6.72;100.00
66681;BME280;73718;51.366;12.350;2023-11-19T07:06:35;99519.38;;;6.76;100.00
66681;BME280;73718;51.366;12.350;2023-11-19T07:09:02;99509.84;;;6.83;100.00
66681;BME280;73718;51.366;12.350;2023-11-19T07:11:38;99501.13;;;6.92;100.00
66681;BME280;73718;51.366;12.350;2023-11-19T07:14:04;99499.38;;;6.97;100.00
66681;BME280;73718;51.366;12.350;2023-11-19T07:16:36;99508.00;;;7.00;100.00
66681;BME280;73718;51.366;12.350;2023-11-19T07:19:03;99526.16;;;7.05;100.00
66681;BME280;73718;51.366;12.350;2023-11-19T07:21:28;99530.53;;;7.06;100.00
66681;BME280;73718;51.366;12.350;2023-11-19T07:23:57;99541.72;;;7.14;100.00
66681;BME280;73718;51.366;12.350;2023-11-19T07:26:23;99529.56;;;7.19;100.00
66681;BME280;73718;51.366;12.350;2023-11-19T07:28:51;99509.63;;;7.26;100.00
66681;BME280;73718;51.366;12.350;2023-11-19T07:31:17;99512.16;;;7.37;100.00
66681;BME280;73718;51.366;12.350;2023-11-19T07:33:46;99523.34;;;7.46;100.00
66681;BME280;73718;51.366;12.350;2023-11-19T07:36:12;99519.81;;;7.58;100.00
66681;BME280;73718;51.366;12.350;2023-11-19T07:38:38;99537.06;;;7.67;100.00
66681;BME280;73718;51.366;12.350;2023-11-19T07:41:07;99521.41;;;7.77;100.00
66681;BME280;73718;51.366;12.350;2023-11-19T07:43:38;99524.81;;;7.84;100.00
66681;BME280;73718;51.366;12.350;2023-11-19T07:46:04;99532.56;;;7.92;100.00
66681;BME280;73718;51.366;12.350;2023-11-19T07:48:29;99536.00;;;7.98;100.00
66681;BME280;73718;51.366;12.350;2023-11-19T07:50:55;99540.28;;;8.01;100.00
66681;BME280;73718;51.366;12.350;2023-11-19T07:53:21;99547.16;;;8.08;100.00
66681;BME280;73718;51.366;12.350;2023-11-19T07:55:46;99548.88;;;8.12;100.00
66681;BME280;73718;51.366;12.350;2023-11-19T07:58:12;99553.16;;;8.16;100.00
66681;BME280;73718;51.366;12.350;2023-11-19T08:00:37;99552.25;;;8.20;100.00
66681;BME280;73718;51.366;12.350;2023-11-19T08:03:04;99550.53;;;8.22;100.00
66681;BME280;73718;51.366;12.350;2023-11-19T08:05:30;99550.50;;;8.25;100.00
66681;BME280;73718;51.366;12.350;2023-11-19T08:07:55;99556.53;;;8.30;100.00
66681;BME280;73718;51.366;12.350;2023-11-19T08:10:21;99555.63;;;8.38;100.00
66681;BME280;73718;51.366;12.350;2023-11-19T08:12:47;99547.75;;;8.45;100.00
66681;BME280;73718;51.366;12.350;2023-11-19T08:15:13;99545.06;;;8.53;100.00
66681;BME280;73718;51.366;12.350;2023-11-19T08:17:39;99547.59;;;8.61;100.00
66681;BME280;73718;51.366;12.350;2023-11-19T08:20:05;99554.41;;;8.72;100.00
66681;BME280;73718;51.366;12.350;2023-11-19T08:22:35;99550.88;;;8.76;100.00
66681;BME280;73718;51.366;12.350;2023-11-19T08:25:00;99555.22;;;8.79;100.00
66681;BME280;73718;51.366;12.350;2023-11-19T08:27:26;99553.47;;;8.79;100.00
66681;BME280;73718;51.366;12.350;2023-11-19T08:29:55;99551.69;;;8.83;100.00
66681;BME280;73718;51.366;12.350;2023-11-19T08:32:26;99545.59;;;8.86;100.00
66681;BME280;73718;51.366;12.350;2023-11-19T08:34:52;99557.69;;;8.90;100.00
66681;BME280;73718;51.366;12.350;2023-11-19T08:37:17;99550.78;;;8.87;100.00
66681;BME280;73718;51.366;12.350;2023-11-19T08:39:46;99568.19;;;8.84;100.00
66681;BME280;73718;51.366;12.350;2023-11-19T08:42:12;99563.84;;;8.81;100.00
66681;BME280;73718;51.366;12.350;2023-11-19T08:44:37;99571.63;;;8.84;100.00
66681;BME280;73718;51.366;12.350;2023-11-19T08:47:03;99566.38;;;8.90;100.00
66681;BME280;73718;51.366;12.350;2023-11-19T08:49:29;99563.66;;;8.99;100.00
66681;BME280;73718;51.366;12.350;2023-11-19T08:51:54;99557.50;;;9.08;100.00
66681;BME280;73718;51.366;12.350;2023-11-19T08:54:20;99560.88;;;9.13;100.00
66681;BME280;73718;51.366;12.350;2023-11-19T08:56:46;99557.38;;;9.14;100.00
66681;BME280;73718;51.366;12.350;2023-11-19T08:59:12;99563.47;;;9.15;100.00
66681;BME280;73718;51.366;12.350;2023-11-19T09:01:37;99564.38;;;9.12;100.00
66681;BME280;73718;51.366;12.350;2023-11-19T09:04:03;99561.81;;;9.09;100.00
66681;BME280;73718;51.366;12.350;2023-11-19T09:06:29;99572.22;;;9.09;100.00
66681;BME280;73718;51.366;12.350;2023-11-19T09:08:55;99582.63;;;9.12;100.00
66681;BME280;73718;51.366;12.350;2023-11-19T09:11:25;99579.03;;;9.19;100.00
66681;BME280;73718;51.366;12.350;2023-11-19T09:13:51;99582.47;;;9.23;100.00
66681;BME280;73718;51.366;12.350;2023-11-19T09:16:16;99585.13;;;9.21;100.00
66681;BME280;73718;51.366;12.350;2023-11-19T09:18:42;99579.88;;;9.24;100.00
66681;BME280;73718;51.366;12.350;2023-11-19T09:21:07;99573.69;;;9.30;100.00
66681;BME280;73718;51.366;12.350;2023-11-19T09:23:32;99577.06;;;9.38;100.00
66681;BME280;73718;51.366;12.350;2023-11-19T09:26:08;99569.94;;;9.52;100.00
66681;BME280;73718;51.366;12.350;2023-11-19T09:28:33;99574.88;;;9.71;100.00
66681;BME280;73718;51.366;12.350;2023-11-19T09:30:59;99580.78;;;9.84;100.00
66681;BME280;73718;51.366;12.350;2023-11-19T09:33:24;99571.13;;;9.90;100.00
66681;BME280;73718;51.366;12.350;2023-11-19T09:35:50;99578.91;;;9.92;100.00
66681;BME280;73718;51.366;12.350;2023-11-19T09:38:16;99584.94;;;9.95;100.00
66681;BME280;73718;51.366;12.350;2023-11-19T09:40:41;99590.19;;;9.94;100.00
66681;BME280;73718;51.366;12.350;2023-11-19T09:43:07;99591.06;;;9.96;100.00
66681;BME280;73718;51.366;12.350;2023-11-19T09:45:48;99586.63;;;10.01;100.00
66681;BME280;73718;51.366;12.350;2023-11-19T09:48:16;99584.72;;;10.11;100.00
66681;BME280;73718;51.366;12.350;2023-11-19T09:50:42;99575.03;;;10.17;100.00
66681;BME280;73718;51.366;12.350;2023-11-19T09:53:09;99578.50;;;10.19;100.00
66681;BME280;73718;51.366;12.350;2023-11-19T09:55:34;99569.81;;;10.17;100.00
66681;BME280;73718;51.366;12.350;2023-11-19T09:58:01;99567.16;;;10.20;100.00
66681;BME280;73718;51.366;12.350;2023-11-19T10:00:27;99576.66;;;10.26;100.00
66681;BME280;73718;51.366;12.350;2023-11-19T10:02:53;99570.50;;;10.30;100.00
66681;BME280;73718;51.366;12.350;2023-11-19T10:05:20;99566.03;;;10.38;100.00
66681;BME280;73718;51.366;12.350;2023-11-19T10:07:47;99566.75;;;10.45;100.00
66681;BME280;73718;51.366;12.350;2023-11-19T10:10:13;99557.13;;;10.50;100.00
66681;BME280;73718;51.366;12.350;2023-11-19T10:12:44;99558.81;;;10.51;100.00
66681;BME280;73718;51.366;12.350;2023-11-19T10:15:19;99562.44;;;10.44;100.00
66681;BME280;73718;51.366;12.350;2023-11-19T10:17:45;99559.00;;;10.42;100.00
66681;BME280;73718;51.366;12.350;2023-11-19T10:20:10;99555.50;;;10.43;100.00
66681;BME280;73718;51.366;12.350;2023-11-19T10:22:39;99557.25;;;10.41;100.00
66681;BME280;73718;51.366;12.350;2023-11-19T10:25:27;99544.97;;;10.47;100.00
66681;BME280;73718;51.366;12.350;2023-11-19T10:27:53;99548.31;;;10.54;100.00
66681;BME280;73718;51.366;12.350;2023-11-19T10:30:23;99536.66;;;10.72;100.00
66681;BME280;73718;51.366;12.350;2023-11-19T10:33:11;99529.34;;;10.89;100.00
66681;BME280;73718;51.366;12.350;2023-11-19T10:35:58;99529.09;;;11.03;100.00
66681;BME280;73718;51.366;12.350;2023-11-19T10:38:24;99521.09;;;11.09;100.00
66681;BME280;73718;51.366;12.350;2023-11-19T10:40:51;99516.50;;;11.20;100.00
66681;BME280;73718;51.366;12.350;2023-11-19T10:43:17;99512.88;;;11.28;100.00
66681;BME280;73718;51.366;12.350;2023-11-19T10:45:43;99511.91;;;11.32;100.00
66681;BME280;73718;51.366;12.350;2023-11-19T10:48:09;99523.75;;;11.48;100.00
66681;BME280;73718;51.366;12.350;2023-11-19T10:50:38;99512.06;;;11.63;100.00
66681;BME280;73718;51.366;12.350;2023-11-19T10:53:05;99511.53;;;11.87;100.00
66681;BME280;73718;51.366;12.350;2023-11-19T10:55:33;99503.91;;;12.12;100.00
66681;BME280;73718;51.366;12.350;2023-11-19T10:58:03;99508.44;;;12.40;100.00
66681;BME280;73718;51.366;12.350;2023-11-19T11:00:52;99497.31;;;12.64;100.00
66681;BME280;73718;51.366;12.350;2023-11-19T11:03:25;99500.78;;;12.65;100.00
66681;BME280;73718;51.366;12.350;2023-11-19T11:05:51;99498.22;;;12.63;100.00
66681;BME280;73718;51.366;12.350;2023-11-19T11:08:18;99516.50;;;12.65;100.00
66681;BME280;73718;51.366;12.350;2023-11-19T11:10:53;99524.31;;;12.66;100.00
66681;BME280;73718;51.366;12.350;2023-11-19T11:13:19;99531.97;;;12.74;100.00
66681;BME280;73718;51.366;12.350;2023-11-19T11:15:48;99523.88;;;12.83;100.00
66681;BME280;73718;51.366;12.350;2023-11-19T11:18:15;99511.19;;;12.68;100.00
66681;BME280;73718;51.366;12.350;2023-11-19T11:20:40;99518.06;;;12.39;100.00
66681;BME280;73718;51.366;12.350;2023-11-19T11:26:05;99510.69;;;11.46;100.00
66681;BME280;73718;51.366;12.350;2023-11-19T11:36:53;99523.78;;;11.46;100.00
66681;BME280;73718;51.366;12.350;2023-11-19T11:39:22;99517.53;;;11.52;100.00
66681;BME280;73718;51.366;12.350;2023-11-19T11:41:47;99523.72;;;11.50;100.00
66681;BME280;73718;51.366;12.350;2023-11-19T11:44:12;99522.09;;;11.44;100.00
66681;BME280;73718;51.366;12.350;2023-11-19T11:57:07;99518.31;;;11.17;100.00
66681;BME280;73718;51.366;12.350;2023-11-19T11:59:47;99513.16;;;11.14;100.00
66681;BME280;73718;51.366;12.350;2023-11-19T12:02:17;99513.25;;;11.09;100.00
66681;BME280;73718;51.366;12.350;2023-11-19T12:04:46;99508.81;;;11.13;100.00
66681;BME280;73718;51.366;12.350;2023-11-19T12:07:16;99506.31;;;11.08;100.00
66681;BME280;73718;51.366;12.350;2023-11-19T12:10:06;99500.06;;;11.15;100.00
66681;BME280;73718;51.366;12.350;2023-11-19T12:12:36;99493.75;;;11.24;100.00
66681;BME280;73718;51.366;12.350;2023-11-19T12:15:08;99501.34;;;11.36;100.00
66681;BME280;73718;51.366;12.350;2023-11-19T12:17:37;99497.66;;;11.45;100.00
66681;BME280;73718;51.366;12.350;2023-11-19T12:20:06;99494.03;;;11.51;100.00
66681;BME280;73718;51.366;12.350;2023-11-19T12:22:38;99490.22;;;11.65;100.00
66681;BME280;73718;51.366;12.350;2023-11-19T12:25:08;99484.44;;;11.88;100.00
66681;BME280;73718;51.366;12.350;2023-11-19T12:27:40;99487.16;;;12.19;100.00
66681;BME280;73718;51.366;12.350;2023-11-19T12:30:07;99479.59;;;12.40;100.00
66681;BME280;73718;51.366;12.350;2023-11-19T12:32:45;99477.41;;;12.57;100.00
66681;BME280;73718;51.366;12.350;2023-11-19T12:35:12;99486.69;;;12.69;100.00
66681;BME280;73718;51.366;12.350;2023-11-19T12:37:44;99492.53;;;12.79;100.00
66681;BME280;73718;51.366;12.350;2023-11-19T12:40:23;99485.16;;;12.91;100.00
66681;BME280;73718;51.366;12.350;2023-11-19T12:42:50;99483.69;;;12.83;100.00
66681;BME280;73718;51.366;12.350;2023-11-19T12:45:16;99499.22;;;12.89;100.00
66681;BME280;73718;51.366;12.350;2023-11-19T12:47:43;99487.44;;;13.04;98.64
66681;BME280;73718;51.366;12.350;2023-11-19T12:50:09;99486.97;;;13.19;99.73
66681;BME280;73718;51.366;12.350;2023-11-19T12:52:36;99492.94;;;13.26;97.84
66681;BME280;73718;51.366;12.350;2023-11-19T12:55:23;99495.25;;;13.36;96.47
66681;BME280;73718;51.366;12.350;2023-11-19T12:57:50;99498.19;;;13.26;97.11
66681;BME280;73718;51.366;12.350;2023-11-19T13:00:20;99495.81;;;13.16;97.89
66681;BME280;73718;51.366;12.350;2023-11-19T13:02:52;99491.66;;;13.09;97.16
66681;BME280;73718;51.366;12.350;2023-11-19T13:05:32;99486.84;;;12.94;99.06
66681;BME280;73718;51.366;12.350;2023-11-19T13:08:06;99494.88;;;12.88;97.67
66681;BME280;73718;51.366;12.350;2023-11-19T13:10:55;99494.84;;;12.89;98.48